aviador You're here:

UKDR Decoded Metar

KRIVYY RIH in UKRAINE
Report Time2018-07-20 20:00:00
UTC Time2018-07-20 20:07:30
Flight Rules vfr VFR
WindVRB at 2 kt
Visibility9999 m
Phenomena:N/A
Clouds:N/A
Expected CloudBase > 800 ft AGL from Temp-Dew spread
CeilingNone
Temp20°C (ISA +6)
Dew Point18°C (88% RH)
QNH1004 hPa
Density Alt1,667 ft
Elevation407 ft
Report Wrong Elevation
Raw Report
METAR UKDR 202000Z VRB01MPS CAVOK 20/18 Q1004
R36/290157 NOSIG=

Extra information for UKDR:More info

Metar Taf Metar & Taf Last 4 Metars F.Rules Stats Wind Profile Meteogram Temp Stats Airport Information Weather charts Add Link Nearby VenuesMetar ALERT Operation Metar Decoded Social comments